Time;durP1;ratioP1;P1;durP2;ratioP2;P2;SDS_P1;SDS_P2;PMS_P1;PMS_P2;Temp;Humidity;BMP_temperature;BMP_pressure;BME280_temperature;BME280_humidity;BME280_pressure;Samples;Min_cycle;Max_cycle;Signal;HPM_P1;HPM_P2
2021/11/30 00:00:59;;;;;;;;;;;7.90;73.80;;;;;;5022142;28;83811;-58
2021/11/30 00:03:25;;;;;;;;;;;7.80;73.60;;;;;;5020163;28;82193;-58
2021/11/30 00:05:51;;;;;;;;;;;7.90;73.70;;;;;;5021258;28;82829;-58
2021/11/30 00:08:18;;;;;;;;;;;7.80;73.90;;;;;;5021949;28;82477;-58
2021/11/30 00:10:47;;;;;;;;;;;7.80;73.70;;;;;;5022574;28;82165;-58
2021/11/30 00:13:12;;;;;;;;;;;7.80;73.80;;;;;;5022972;28;84579;-58
2021/11/30 00:15:38;;;;;;;;;;;7.80;73.80;;;;;;5024672;28;81490;-58
2021/11/30 00:18:04;;;;;;;;;;;7.80;73.80;;;;;;5023808;28;83112;-58
2021/11/30 00:20:29;;;;;;;;;;;7.80;73.80;;;;;;5020467;28;84267;-59
2021/11/30 00:22:55;;;;;;;;;;;7.80;73.90;;;;;;5019801;28;83038;-59
2021/11/30 00:25:20;;;;;;;;;;;7.80;74.00;;;;;;5020790;28;83426;-58
2021/11/30 00:27:46;;;;;;;;;;;7.80;73.90;;;;;;5019933;28;84213;-58
2021/11/30 00:30:12;;;;;;;;;;;7.80;74.00;;;;;;5021307;28;82061;-59
2021/11/30 00:32:37;;;;;;;;;;;7.80;73.90;;;;;;5025144;28;82148;-59
2021/11/30 00:35:03;;;;;;;;;;;7.80;74.00;;;;;;5022936;28;82108;-59
2021/11/30 00:37:28;;;;;;;;;;;7.70;74.00;;;;;;5023304;28;83040;-58
2021/11/30 00:39:54;;;;;;;;;;;7.70;74.10;;;;;;5024610;28;83114;-58
2021/11/30 00:42:23;;;;;;;;;;;7.80;74.10;;;;;;5021047;28;83019;-58
2021/11/30 00:44:50;;;;;;;;;;;7.80;74.00;;;;;;5021781;28;83728;-58
2021/11/30 00:47:19;;;;;;;;;;;7.70;74.10;;;;;;5019895;28;85842;-58
2021/11/30 00:49:46;;;;;;;;;;;7.80;74.00;;;;;;5023527;28;82245;-59
2021/11/30 00:52:12;;;;;;;;;;;7.80;74.10;;;;;;5024891;28;82387;-59
2021/11/30 00:54:38;;;;;;;;;;;7.70;74.00;;;;;;5021757;28;82105;-59
2021/11/30 00:57:04;;;;;;;;;;;7.70;74.10;;;;;;5022917;28;82130;-58
2021/11/30 00:59:29;;;;;;;;;;;7.70;74.00;;;;;;5021897;28;83724;-59
2021/11/30 01:01:58;;;;;;;;;;;7.70;74.10;;;;;;5023155;28;82094;-59
2021/11/30 01:04:24;;;;;;;;;;;7.70;74.20;;;;;;5020060;28;84325;-58
2021/11/30 01:06:49;;;;;;;;;;;7.70;74.30;;;;;;5019406;28;83181;-58
2021/11/30 01:09:15;;;;;;;;;;;7.60;74.30;;;;;;5020199;28;82220;-58
2021/11/30 01:11:40;;;;;;;;;;;7.70;74.30;;;;;;5019968;28;84406;-58
2021/11/30 01:14:07;;;;;;;;;;;7.70;74.20;;;;;;5024237;28;83135;-58
2021/11/30 01:16:33;;;;;;;;;;;7.70;74.30;;;;;;5021451;28;82836;-59
2021/11/30 01:18:59;;;;;;;;;;;7.70;74.30;;;;;;5019528;28;83960;-58
2021/11/30 01:21:25;;;;;;;;;;;7.60;74.30;;;;;;5019850;28;82185;-58
2021/11/30 01:23:50;;;;;;;;;;;7.60;74.30;;;;;;5021130;28;82615;-58
2021/11/30 01:26:16;;;;;;;;;;;7.60;74.30;;;;;;5022122;28;82611;-58
2021/11/30 01:28:41;;;;;;;;;;;7.60;74.20;;;;;;5023230;28;81366;-59
2021/11/30 01:31:07;;;;;;;;;;;7.70;74.10;;;;;;5023155;28;82151;-58
2021/11/30 01:33:35;;;;;;;;;;;7.70;74.10;;;;;;5022298;28;84358;-58
2021/11/30 01:36:02;;;;;;;;;;;7.60;74.10;;;;;;5023933;28;83053;-58
2021/11/30 01:38:27;;;;;;;;;;;7.60;74.40;;;;;;5021540;28;83095;-58
2021/11/30 01:40:54;;;;;;;;;;;7.60;74.90;;;;;;5021877;28;82102;-58
2021/11/30 01:43:23;;;;;;;;;;;7.60;74.10;;;;;;5021844;28;82218;-59
2021/11/30 01:46:06;;;;;;;;;;;7.60;74.00;;;;;;5021821;28;84339;-58
2021/11/30 01:51:16;;;;;;;;;;;7.60;73.90;;;;;;5019042;28;82124;-58
2021/11/30 01:53:41;;;;;;;;;;;7.60;73.80;;;;;;5018773;28;82355;-58
2021/11/30 01:56:07;;;;;;;;;;;7.60;73.90;;;;;;5018612;28;82198;-58
2021/11/30 01:58:33;;;;;;;;;;;7.60;74.00;;;;;;5022279;28;82440;-56
2021/11/30 02:00:58;;;;;;;;;;;7.60;73.90;;;;;;5020109;28;83105;-58
2021/11/30 02:03:24;;;;;;;;;;;7.60;74.10;;;;;;5021908;28;83743;-57
2021/11/30 02:05:50;;;;;;;;;;;7.50;74.10;;;;;;5022985;28;83014;-58
2021/11/30 02:08:15;;;;;;;;;;;7.50;74.10;;;;;;5022514;28;82161;-58
2021/11/30 02:10:41;;;;;;;;;;;7.50;74.00;;;;;;5021341;28;82408;-56
2021/11/30 02:13:07;;;;;;;;;;;7.50;74.10;;;;;;5020625;28;82131;-58
2021/11/30 02:15:38;;;;;;;;;;;7.50;74.10;;;;;;5020546;28;82116;-56
2021/11/30 02:18:06;;;;;;;;;;;7.50;74.00;;;;;;5020738;28;84197;-58
2021/11/30 02:20:36;;;;;;;;;;;7.50;74.00;;;;;;5023812;28;84409;-58
2021/11/30 02:23:02;;;;;;;;;;;7.50;73.90;;;;;;5023704;28;83824;-56
2021/11/30 02:25:27;;;;;;;;;;;7.50;73.80;;;;;;5023689;28;85220;-58
2021/11/30 02:27:53;;;;;;;;;;;7.50;73.90;;;;;;5025856;28;82124;-58
2021/11/30 02:30:19;;;;;;;;;;;7.50;73.80;;;;;;5025144;28;83834;-57
2021/11/30 02:32:45;;;;;;;;;;;7.50;73.60;;;;;;5024714;28;84218;-58
2021/11/30 02:35:11;;;;;;;;;;;7.50;73.70;;;;;;5025593;28;82876;-56
2021/11/30 02:37:39;;;;;;;;;;;7.50;73.70;;;;;;5024054;28;83836;-58
2021/11/30 02:40:05;;;;;;;;;;;7.40;73.70;;;;;;5024837;28;83570;-58
2021/11/30 02:42:31;;;;;;;;;;;7.40;73.50;;;;;;5027257;28;81465;-58
2021/11/30 02:44:57;;;;;;;;;;;7.50;73.30;;;;;;5024385;28;83310;-58
2021/11/30 02:47:24;;;;;;;;;;;7.40;73.30;;;;;;5024059;28;82199;-58
2021/11/30 02:49:50;;;;;;;;;;;7.50;73.30;;;;;;5021553;28;83778;-58
2021/11/30 02:52:20;;;;;;;;;;;7.40;73.10;;;;;;5025123;28;83427;-59
2021/11/30 02:54:49;;;;;;;;;;;7.40;73.30;;;;;;5021714;28;83704;-58
2021/11/30 02:57:16;;;;;;;;;;;7.30;73.20;;;;;;5023265;28;84460;-57
2021/11/30 02:59:43;;;;;;;;;;;7.30;73.50;;;;;;5022414;28;84468;-58
2021/11/30 03:02:16;;;;;;;;;;;7.30;73.30;;;;;;5024873;28;82087;-56
2021/11/30 03:04:42;;;;;;;;;;;7.30;73.30;;;;;;5025185;28;84529;-58
2021/11/30 03:07:09;;;;;;;;;;;7.30;73.50;;;;;;5026005;28;81353;-58
2021/11/30 03:09:35;;;;;;;;;;;7.30;73.40;;;;;;5024472;28;82134;-58
2021/11/30 03:12:00;;;;;;;;;;;7.30;73.20;;;;;;5025503;28;83143;-58
2021/11/30 03:14:28;;;;;;;;;;;7.30;73.10;;;;;;5024492;28;83047;-59
2021/11/30 03:16:54;;;;;;;;;;;7.30;73.10;;;;;;5022182;28;85183;-58
2021/11/30 03:19:20;;;;;;;;;;;7.30;73.10;;;;;;5022464;28;82568;-57
2021/11/30 03:21:48;;;;;;;;;;;7.30;73.10;;;;;;5021849;28;82134;-56
2021/11/30 03:24:14;;;;;;;;;;;7.30;72.90;;;;;;5027251;28;83836;-57
2021/11/30 03:26:40;;;;;;;;;;;7.20;73.00;;;;;;5023687;28;82142;-58
2021/11/30 03:29:06;;;;;;;;;;;7.20;73.00;;;;;;5020728;28;83877;-58
2021/11/30 03:31:47;;;;;;;;;;;7.10;73.10;;;;;;5021845;28;82318;-57
2021/11/30 03:34:15;;;;;;;;;;;7.20;73.00;;;;;;5021807;27;82111;-57
2021/11/30 03:36:41;;;;;;;;;;;7.20;72.80;;;;;;5022527;28;82777;-58
2021/11/30 03:39:10;;;;;;;;;;;7.20;72.80;;;;;;5023826;28;83878;-58
2021/11/30 03:41:35;;;;;;;;;;;7.20;72.70;;;;;;5021132;28;82114;-58
2021/11/30 03:44:02;;;;;;;;;;;7.10;72.70;;;;;;5022202;28;82290;-58
2021/11/30 03:46:30;;;;;;;;;;;7.10;72.60;;;;;;5024022;28;84849;-56
2021/11/30 03:48:55;;;;;;;;;;;7.10;72.60;;;;;;5020340;28;84738;-56
2021/11/30 03:51:21;;;;;;;;;;;7.20;72.70;;;;;;5021008;28;84564;-58
2021/11/30 03:53:46;;;;;;;;;;;7.10;72.60;;;;;;5022301;28;82110;-58
2021/11/30 03:56:12;;;;;;;;;;;7.10;72.60;;;;;;5022265;28;84278;-58
2021/11/30 03:58:38;;;;;;;;;;;7.10;72.70;;;;;;5020912;28;84129;-58
2021/11/30 04:01:03;;;;;;;;;;;7.10;72.40;;;;;;5021527;28;82103;-58
2021/11/30 04:03:32;;;;;;;;;;;7.10;72.40;;;;;;5020166;28;83102;-58
2021/11/30 04:05:58;;;;;;;;;;;7.10;72.40;;;;;;5021820;28;84793;-58
2021/11/30 04:08:23;;;;;;;;;;;7.00;72.50;;;;;;5023499;28;82106;-57
2021/11/30 04:10:49;;;;;;;;;;;7.00;72.40;;;;;;5020193;28;83637;-59
2021/11/30 04:13:15;;;;;;;;;;;6.90;72.50;;;;;;5020871;28;83064;-58
2021/11/30 04:15:40;;;;;;;;;;;7.00;72.40;;;;;;5019720;28;82376;-58
2021/11/30 04:18:06;;;;;;;;;;;7.00;72.50;;;;;;5019791;28;82221;-59
2021/11/30 04:20:31;;;;;;;;;;;7.00;72.30;;;;;;5021728;28;81353;-58
2021/11/30 04:22:57;;;;;;;;;;;6.90;72.30;;;;;;5022430;28;82131;-59
2021/11/30 04:25:23;;;;;;;;;;;7.00;72.40;;;;;;5022065;28;82529;-59
2021/11/30 04:27:48;;;;;;;;;;;7.00;72.40;;;;;;5022597;28;83119;-59
2021/11/30 04:30:14;;;;;;;;;;;6.90;72.20;;;;;;5026687;28;84901;-60
2021/11/30 04:32:40;;;;;;;;;;;7.00;72.30;;;;;;5022357;28;83596;-59
2021/11/30 04:35:05;;;;;;;;;;;6.90;72.10;;;;;;5019707;28;83869;-59
2021/11/30 04:37:31;;;;;;;;;;;7.00;72.20;;;;;;5019446;28;85977;-59
2021/11/30 04:39:57;;;;;;;;;;;6.90;72.10;;;;;;5021010;28;82947;-59
2021/11/30 04:42:26;;;;;;;;;;;6.90;72.10;;;;;;5023232;28;83708;-60
2021/11/30 04:45:01;;;;;;;;;;;6.80;72.30;;;;;;5021023;28;82737;-59
2021/11/30 04:47:31;;;;;;;;;;;6.80;72.20;;;;;;5020233;28;82145;-59
2021/11/30 04:50:00;;;;;;;;;;;6.80;72.10;;;;;;5023481;28;82124;-59
2021/11/30 04:52:25;;;;;;;;;;;6.80;72.20;;;;;;5021392;28;83106;-59
2021/11/30 04:54:51;;;;;;;;;;;6.80;72.10;;;;;;5021299;28;83311;-59
2021/11/30 04:57:17;;;;;;;;;;;6.80;72.00;;;;;;5020489;28;84201;-59
2021/11/30 04:59:43;;;;;;;;;;;6.70;72.20;;;;;;5021420;28;82109;-59
2021/11/30 05:02:08;;;;;;;;;;;6.70;72.10;;;;;;5021241;28;82470;-59
2021/11/30 05:04:34;;;;;;;;;;;6.70;72.20;;;;;;5020721;28;83120;-59
2021/11/30 05:07:00;;;;;;;;;;;6.70;72.20;;;;;;5020335;28;82103;-59
2021/11/30 05:09:25;;;;;;;;;;;6.70;72.20;;;;;;5023250;28;82532;-59
2021/11/30 05:11:51;;;;;;;;;;;6.60;72.10;;;;;;5023060;28;84588;-59
2021/11/30 05:14:17;;;;;;;;;;;6.70;72.00;;;;;;5022406;28;82517;-59
2021/11/30 05:16:42;;;;;;;;;;;6.70;71.90;;;;;;5020050;28;85864;-59
2021/11/30 05:19:08;;;;;;;;;;;6.70;72.00;;;;;;5021077;28;83303;-59
2021/11/30 05:21:34;;;;;;;;;;;6.70;71.90;;;;;;5020756;28;82118;-59
2021/11/30 05:24:02;;;;;;;;;;;6.70;71.80;;;;;;5021755;28;82990;-60
2021/11/30 05:26:28;;;;;;;;;;;6.60;71.90;;;;;;5021176;28;82186;-59
2021/11/30 05:28:54;;;;;;;;;;;6.70;71.80;;;;;;5021623;28;83942;-58
2021/11/30 05:31:19;;;;;;;;;;;6.70;71.80;;;;;;5019847;28;82960;-59
2021/11/30 05:33:47;;;;;;;;;;;6.60;72.00;;;;;;5025695;28;82402;-59
2021/11/30 05:36:13;;;;;;;;;;;6.60;71.80;;;;;;5022034;28;84030;-59
2021/11/30 05:38:39;;;;;;;;;;;6.60;71.70;;;;;;5020326;28;82812;-59
2021/11/30 05:41:04;;;;;;;;;;;6.60;71.70;;;;;;5020356;28;83066;-59
2021/11/30 05:43:30;;;;;;;;;;;6.60;71.70;;;;;;5020357;28;82777;-59
2021/11/30 05:45:55;;;;;;;;;;;6.60;71.70;;;;;;5022511;28;82143;-60
2021/11/30 05:48:21;;;;;;;;;;;6.60;71.70;;;;;;5020251;28;83458;-59
2021/11/30 05:50:47;;;;;;;;;;;6.60;71.80;;;;;;5021335;28;82545;-60
2021/11/30 05:53:12;;;;;;;;;;;6.60;71.60;;;;;;5021802;28;83058;-59
2021/11/30 05:55:38;;;;;;;;;;;6.50;71.80;;;;;;5024465;28;82080;-60
2021/11/30 05:58:05;;;;;;;;;;;6.50;71.70;;;;;;5026432;28;81368;-59
2021/11/30 06:00:31;;;;;;;;;;;6.40;71.80;;;;;;5024956;28;82134;-59
2021/11/30 06:03:26;;;;;;;;;;;6.40;71.70;;;;;;5023235;28;84347;-59
2021/11/30 06:05:51;;;;;;;;;;;6.40;71.70;;;;;;5023877;28;83108;-59
2021/11/30 06:08:17;;;;;;;;;;;6.50;71.70;;;;;;5024102;28;83884;-59
2021/11/30 06:10:42;;;;;;;;;;;6.50;71.70;;;;;;5025413;28;82098;-59
2021/11/30 06:13:08;;;;;;;;;;;6.40;71.70;;;;;;5024081;28;82746;-59
2021/11/30 06:15:33;;;;;;;;;;;6.40;71.60;;;;;;5024479;28;82830;-60
2021/11/30 06:17:59;;;;;;;;;;;6.40;71.60;;;;;;5027278;28;84356;-59
2021/11/30 06:20:25;;;;;;;;;;;6.40;71.60;;;;;;5025415;28;82326;-59
2021/11/30 06:22:50;;;;;;;;;;;6.40;71.40;;;;;;5026805;28;83333;-60
2021/11/30 06:25:16;;;;;;;;;;;6.40;71.40;;;;;;5025691;28;82937;-59
2021/11/30 06:27:42;;;;;;;;;;;6.40;71.60;;;;;;5024543;28;82888;-59
2021/11/30 06:30:08;;;;;;;;;;;6.40;71.50;;;;;;5022555;28;83515;-59
2021/11/30 06:32:33;;;;;;;;;;;6.40;71.40;;;;;;5024083;28;82124;-59
2021/11/30 06:34:59;;;;;;;;;;;6.40;71.30;;;;;;5025006;28;82632;-60
2021/11/30 06:37:25;;;;;;;;;;;6.20;71.70;;;;;;5023565;28;83568;-59
2021/11/30 06:39:54;;;;;;;;;;;6.40;71.50;;;;;;5026403;28;82088;-59
2021/11/30 06:42:20;;;;;;;;;;;6.40;71.20;;;;;;5024405;28;84858;-59
2021/11/30 06:44:47;;;;;;;;;;;6.40;71.40;;;;;;5024415;28;82142;-59
2021/11/30 06:47:12;;;;;;;;;;;6.30;71.30;;;;;;5024046;28;84322;-59
2021/11/30 06:49:38;;;;;;;;;;;6.30;71.50;;;;;;5023488;28;82127;-59
2021/11/30 06:52:04;;;;;;;;;;;6.30;71.50;;;;;;5024103;28;82907;-59
2021/11/30 06:54:29;;;;;;;;;;;6.30;71.40;;;;;;5022237;28;83431;-59
2021/11/30 06:56:55;;;;;;;;;;;6.20;71.70;;;;;;5024139;28;84830;-59
2021/11/30 06:59:21;;;;;;;;;;;6.30;71.40;;;;;;5025018;28;82054;-59
2021/11/30 07:01:47;;;;;;;;;;;6.30;71.40;;;;;;5024485;28;85055;-60
2021/11/30 07:04:13;;;;;;;;;;;6.20;71.50;;;;;;5023518;28;82130;-59
2021/11/30 07:14:04;;;;;;;;;;;6.20;71.50;;;;;;5022717;28;82106;-59
2021/11/30 07:16:29;;;;;;;;;;;6.20;71.40;;;;;;5023543;28;84820;-60
2021/11/30 07:18:55;;;;;;;;;;;6.20;71.40;;;;;;5022383;28;84280;-59
2021/11/30 07:21:21;;;;;;;;;;;6.20;71.20;;;;;;5025237;28;83747;-60
2021/11/30 07:23:46;;;;;;;;;;;6.10;71.40;;;;;;5024069;28;82103;-59
2021/11/30 07:26:12;;;;;;;;;;;6.10;71.50;;;;;;5022053;28;82509;-59
2021/11/30 07:28:37;;;;;;;;;;;6.10;71.30;;;;;;5024014;28;83873;-59
2021/11/30 07:31:10;;;;;;;;;;;6.10;71.50;;;;;;5021791;28;83261;-59
2021/11/30 07:33:37;;;;;;;;;;;6.10;71.20;;;;;;5022201;28;84115;-59
2021/11/30 07:36:04;;;;;;;;;;;6.10;71.10;;;;;;5023232;28;83007;-59
2021/11/30 07:38:30;;;;;;;;;;;6.10;71.30;;;;;;5023376;28;82163;-60
2021/11/30 07:40:56;;;;;;;;;;;6.00;71.50;;;;;;5023028;28;82154;-59
2021/11/30 07:43:22;;;;;;;;;;;6.00;71.30;;;;;;5024055;28;84108;-59
2021/11/30 07:45:48;;;;;;;;;;;6.10;71.30;;;;;;5023555;28;83003;-59
2021/11/30 07:48:13;;;;;;;;;;;6.00;71.20;;;;;;5022803;28;83088;-59
2021/11/30 07:50:39;;;;;;;;;;;5.90;71.40;;;;;;5023440;28;82196;-59
2021/11/30 07:53:05;;;;;;;;;;;6.00;71.20;;;;;;5021437;28;82144;-59
2021/11/30 07:55:32;;;;;;;;;;;6.00;71.30;;;;;;5023655;28;84320;-59
2021/11/30 07:57:57;;;;;;;;;;;6.00;71.10;;;;;;5021466;28;82157;-59
2021/11/30 08:00:23;;;;;;;;;;;6.00;71.10;;;;;;5023769;28;81365;-59
2021/11/30 08:02:49;;;;;;;;;;;6.00;71.20;;;;;;5022094;28;82960;-59
2021/11/30 08:05:14;;;;;;;;;;;5.80;71.50;;;;;;5023815;28;82215;-59
2021/11/30 08:07:40;;;;;;;;;;;5.90;71.40;;;;;;5019679;28;84014;-59
2021/11/30 08:10:09;;;;;;;;;;;5.80;71.60;;;;;;5021730;28;82181;-59
2021/11/30 08:12:35;;;;;;;;;;;5.90;71.30;;;;;;5021622;28;83783;-58
2021/11/30 08:15:01;;;;;;;;;;;5.90;71.10;;;;;;5022381;28;82742;-59
2021/11/30 08:17:26;;;;;;;;;;;5.80;71.40;;;;;;5021315;28;82137;-59
2021/11/30 08:19:52;;;;;;;;;;;5.80;71.30;;;;;;5022816;28;82111;-59
2021/11/30 08:22:18;;;;;;;;;;;5.90;71.20;;;;;;5024031;28;84363;-60
2021/11/30 08:24:43;;;;;;;;;;;5.80;71.20;;;;;;5022301;28;83006;-59
2021/11/30 08:27:09;;;;;;;;;;;5.90;71.00;;;;;;5023187;28;82092;-59
2021/11/30 08:29:40;;;;;;;;;;;5.80;71.20;;;;;;5020489;28;83765;-59
2021/11/30 08:32:09;;;;;;;;;;;5.80;71.30;;;;;;5022045;28;83729;-60
2021/11/30 08:34:38;;;;;;;;;;;5.80;71.10;;;;;;5020573;28;84254;-59
2021/11/30 08:37:04;;;;;;;;;;;5.80;71.20;;;;;;5022608;28;82170;-59
2021/11/30 08:39:30;;;;;;;;;;;5.80;71.30;;;;;;5020796;28;83682;-59
2021/11/30 08:41:56;;;;;;;;;;;5.60;71.40;;;;;;5021979;28;84464;-59
2021/11/30 08:44:22;;;;;;;;;;;5.70;71.30;;;;;;5022476;28;83802;-59
2021/11/30 08:46:48;;;;;;;;;;;5.70;71.00;;;;;;5021027;28;82496;-60
2021/11/30 08:49:13;;;;;;;;;;;5.70;70.90;;;;;;5025794;28;81914;-59
2021/11/30 08:51:40;;;;;;;;;;;5.70;71.20;;;;;;5020448;28;82936;-59
2021/11/30 08:54:06;;;;;;;;;;;5.70;71.20;;;;;;5021181;28;84188;-60
2021/11/30 08:56:32;;;;;;;;;;;5.60;71.30;;;;;;5022055;28;83952;-59
2021/11/30 08:58:57;;;;;;;;;;;5.60;71.20;;;;;;5020477;28;82395;-59
2021/11/30 09:01:23;;;;;;;;;;;5.70;71.00;;;;;;5021105;28;82656;-59
2021/11/30 09:03:49;;;;;;;;;;;5.70;71.00;;;;;;5020387;28;82150;-59
2021/11/30 09:06:14;;;;;;;;;;;5.70;70.80;;;;;;5020640;28;83375;-59
2021/11/30 09:08:40;;;;;;;;;;;5.60;71.20;;;;;;5022904;28;83572;-59
2021/11/30 09:11:05;;;;;;;;;;;5.70;71.10;;;;;;5022990;28;83529;-59
2021/11/30 09:13:31;;;;;;;;;;;5.50;71.10;;;;;;5020860;28;82291;-59
2021/11/30 09:15:57;;;;;;;;;;;5.70;70.90;;;;;;5022679;28;82071;-60
2021/11/30 09:18:23;;;;;;;;;;;5.60;70.90;;;;;;5021008;28;82983;-59
2021/11/30 09:20:48;;;;;;;;;;;5.60;71.10;;;;;;5020168;28;85639;-59
2021/11/30 09:23:14;;;;;;;;;;;5.50;71.00;;;;;;5022011;28;83107;-59
2021/11/30 09:25:40;;;;;;;;;;;5.60;71.10;;;;;;5019250;28;82131;-59
2021/11/30 09:28:06;;;;;;;;;;;5.50;71.10;;;;;;5018556;28;82999;-59
2021/11/30 09:30:34;;;;;;;;;;;5.50;71.30;;;;;;5026889;28;82160;-59
2021/11/30 09:32:59;;;;;;;;;;;5.50;71.20;;;;;;5023499;28;83960;-59
2021/11/30 09:35:25;;;;;;;;;;;5.60;71.00;;;;;;5026341;28;82260;-59
2021/11/30 09:37:52;;;;;;;;;;;5.60;70.70;;;;;;5024174;28;83861;-59
2021/11/30 09:40:20;;;;;;;;;;;5.60;70.70;;;;;;5024290;28;83575;-60
2021/11/30 09:42:48;;;;;;;;;;;5.50;70.90;;;;;;5023823;28;82123;-59
2021/11/30 09:45:13;;;;;;;;;;;5.50;70.80;;;;;;5023643;28;83909;-59
2021/11/30 09:47:40;;;;;;;;;;;5.50;70.90;;;;;;5025182;28;84398;-58
2021/11/30 09:50:07;;;;;;;;;;;5.50;71.10;;;;;;5024264;28;82123;-58
2021/11/30 09:52:33;;;;;;;;;;;5.40;71.20;;;;;;5025703;28;84570;-58
2021/11/30 09:54:58;;;;;;;;;;;5.40;71.40;;;;;;5026152;28;82205;-58
2021/11/30 09:57:24;;;;;;;;;;;5.30;71.30;;;;;;5023611;28;82808;-59
2021/11/30 09:59:50;;;;;;;;;;;5.30;71.30;;;;;;5020391;28;89536;-59
2021/11/30 10:02:16;;;;;;;;;;;5.40;71.20;;;;;;5022308;28;86388;-59
2021/11/30 10:04:42;;;;;;;;;;;5.50;71.00;;;;;;5021472;28;87899;-59
2021/11/30 10:07:08;;;;;;;;;;;5.50;70.80;;;;;;5021163;28;89611;-59
2021/11/30 10:09:34;;;;;;;;;;;5.40;71.00;;;;;;5018113;28;88063;-59
2021/11/30 10:12:04;;;;;;;;;;;5.30;71.20;;;;;;5018424;28;90440;-59
2021/11/30 10:14:34;;;;;;;;;;;5.40;71.20;;;;;;5021286;28;89146;-60
2021/11/30 10:17:12;;;;;;;;;;;5.40;71.10;;;;;;5020184;28;88087;-59
2021/11/30 10:19:38;;;;;;;;;;;5.30;71.20;;;;;;5020015;28;89492;-59
2021/11/30 10:22:04;;;;;;;;;;;5.30;71.30;;;;;;5018830;28;87231;-59
2021/11/30 10:24:29;;;;;;;;;;;5.30;71.30;;;;;;5018623;28;88694;-58
2021/11/30 10:26:56;;;;;;;;;;;5.30;71.30;;;;;;5019202;28;86669;-59
2021/11/30 10:29:21;;;;;;;;;;;5.20;71.30;;;;;;5018642;28;87157;-59
2021/11/30 10:31:52;;;;;;;;;;;5.20;71.50;;;;;;5019878;28;87114;-58
2021/11/30 10:34:19;;;;;;;;;;;5.20;71.70;;;;;;5018044;28;91036;-58
2021/11/30 10:37:05;;;;;;;;;;;5.20;71.50;;;;;;5022273;28;88879;-59
2021/11/30 10:39:33;;;;;;;;;;;5.30;71.20;;;;;;5010683;28;87984;-58
2021/11/30 10:42:11;;;;;;;;;;;5.20;71.40;;;;;;5020614;28;87166;-59
2021/11/30 10:44:37;;;;;;;;;;;5.20;71.50;;;;;;5020883;28;87132;-58
2021/11/30 10:47:12;;;;;;;;;;;5.10;71.70;;;;;;5021370;28;88265;-58
2021/11/30 10:49:50;;;;;;;;;;;5.10;71.80;;;;;;5021009;28;88862;-59
2021/11/30 10:52:21;;;;;;;;;;;5.10;71.50;;;;;;5022219;28;89027;-59
2021/11/30 10:54:46;;;;;;;;;;;5.10;71.80;;;;;;5018300;28;90633;-59
2021/11/30 10:57:12;;;;;;;;;;;5.10;71.70;;;;;;5021630;28;87227;-59
2021/11/30 10:59:37;;;;;;;;;;;5.10;71.60;;;;;;5021277;28;89242;-59
2021/11/30 11:02:03;;;;;;;;;;;5.10;71.90;;;;;;5021145;28;87282;-59
2021/11/30 11:04:30;;;;;;;;;;;5.10;71.90;;;;;;5019538;28;88690;-59
2021/11/30 11:07:05;;;;;;;;;;;5.10;71.90;;;;;;5018372;28;89958;-58
2021/11/30 11:09:46;;;;;;;;;;;5.10;71.90;;;;;;5020591;28;88883;-59
2021/11/30 11:12:12;;;;;;;;;;;5.10;71.80;;;;;;5018394;28;89389;-59
2021/11/30 11:14:45;;;;;;;;;;;5.10;71.70;;;;;;5019758;28;89141;-59
2021/11/30 11:17:24;;;;;;;;;;;5.10;71.80;;;;;;5019441;28;87208;-59
2021/11/30 11:19:50;;;;;;;;;;;5.10;71.80;;;;;;5023928;28;87211;-59
2021/11/30 11:22:17;;;;;;;;;;;5.10;71.70;;;;;;5021026;28;87195;-59
2021/11/30 11:24:43;;;;;;;;;;;5.10;71.60;;;;;;5019081;28;88091;-59
2021/11/30 11:27:10;;;;;;;;;;;5.10;71.80;;;;;;5020579;28;87421;-58
2021/11/30 11:29:41;;;;;;;;;;;5.10;71.80;;;;;;5020248;28;87170;-59
2021/11/30 11:32:07;;;;;;;;;;;5.10;72.30;;;;;;5019078;28;88903;-59
2021/11/30 11:34:34;;;;;;;;;;;5.00;71.80;;;;;;5019986;28;89657;-59
2021/11/30 11:37:00;;;;;;;;;;;5.00;71.90;;;;;;5020280;28;88742;-59
2021/11/30 11:39:27;;;;;;;;;;;5.00;72.00;;;;;;5018122;28;88633;-59
2021/11/30 11:41:56;;;;;;;;;;;5.00;71.90;;;;;;5023156;28;86793;-59
2021/11/30 11:44:23;;;;;;;;;;;5.00;72.00;;;;;;5018737;28;87228;-58
2021/11/30 11:46:50;;;;;;;;;;;5.00;71.80;;;;;;5018148;28;89648;-58
2021/11/30 11:49:23;;;;;;;;;;;5.00;71.80;;;;;;5020987;28;88909;-58
2021/11/30 11:51:50;;;;;;;;;;;5.00;71.90;;;;;;5020928;28;88919;-58
2021/11/30 11:54:29;;;;;;;;;;;4.90;71.90;;;;;;5019360;28;89203;-58
2021/11/30 11:56:56;;;;;;;;;;;4.90;71.90;;;;;;5020007;28;87181;-58
2021/11/30 11:59:22;;;;;;;;;;;4.90;71.90;;;;;;5020028;28;88502;-59
2021/11/30 12:01:49;;;;;;;;;;;4.90;71.80;;;;;;5019463;28;88703;-59
2021/11/30 12:04:15;;;;;;;;;;;4.90;71.80;;;;;;5023173;28;87159;-58
2021/11/30 12:06:53;;;;;;;;;;;4.90;71.90;;;;;;5019125;28;88294;-58
2021/11/30 12:09:20;;;;;;;;;;;4.90;72.00;;;;;;5018275;28;87120;-58
2021/11/30 12:11:50;;;;;;;;;;;4.90;72.10;;;;;;5017875;28;88942;-59
2021/11/30 12:14:23;;;;;;;;;;;4.90;72.10;;;;;;5018807;28;88888;-58
2021/11/30 12:17:03;;;;;;;;;;;4.80;72.10;;;;;;5019951;28;88798;-58
2021/11/30 12:19:30;;;;;;;;;;;4.80;72.30;;;;;;5019472;28;87172;-59
2021/11/30 12:21:55;;;;;;;;;;;4.80;72.30;;;;;;5017682;28;89163;-58
2021/11/30 12:24:34;;;;;;;;;;;4.80;72.40;;;;;;5017094;28;87132;-58
2021/11/30 12:27:22;;;;;;;;;;;4.80;72.40;;;;;;5021692;28;88838;-59
2021/11/30 12:29:49;;;;;;;;;;;4.80;72.50;;;;;;5019417;28;87271;-58
2021/11/30 12:32:19;;;;;;;;;;;4.70;72.40;;;;;;5018977;28;87025;-59
2021/11/30 12:34:52;;;;;;;;;;;4.70;72.60;;;;;;5019519;28;88072;-59
2021/11/30 12:37:25;;;;;;;;;;;4.70;72.70;;;;;;5019196;28;87203;-58
2021/11/30 12:40:04;;;;;;;;;;;4.70;72.30;;;;;;5018287;28;88122;-60
2021/11/30 12:42:30;;;;;;;;;;;4.80;72.50;;;;;;5018023;28;89424;-59
2021/11/30 12:44:56;;;;;;;;;;;4.80;72.30;;;;;;5016237;28;87236;-59
2021/11/30 12:47:26;;;;;;;;;;;4.70;72.60;;;;;;5020469;28;88883;-68
2021/11/30 12:49:52;;;;;;;;;;;4.80;72.30;;;;;;5021102;28;88346;-59
2021/11/30 12:52:18;;;;;;;;;;;4.90;69.80;;;;;;5016821;28;88098;-61
2021/11/30 12:54:48;;;;;;;;;;;4.90;70.30;;;;;;5016480;28;89077;-61
2021/11/30 12:57:19;;;;;;;;;;;4.90;71.30;;;;;;5017417;28;86388;-59
2021/11/30 12:59:51;;;;;;;;;;;4.80;71.20;;;;;;5016476;28;88834;-59
2021/11/30 13:02:17;;;;;;;;;;;4.80;71.50;;;;;;5020124;28;88117;-60
2021/11/30 13:04:43;;;;;;;;;;;4.80;72.10;;;;;;5019187;28;88089;-60
2021/11/30 13:07:12;;;;;;;;;;;4.80;72.10;;;;;;5019009;28;89854;-59
2021/11/30 13:09:39;;;;;;;;;;;4.80;72.20;;;;;;5015586;28;91650;-69
2021/11/30 13:12:06;;;;;;;;;;;4.80;71.10;;;;;;5022416;28;87123;-70
2021/11/30 13:14:34;;;;;;;;;;;4.80;71.50;;;;;;5017488;28;89132;-69
2021/11/30 13:17:00;;;;;;;;;;;4.80;71.70;;;;;;5015896;28;88888;-70
2021/11/30 13:19:30;;;;;;;;;;;4.80;71.90;;;;;;5016456;28;87487;-70
2021/11/30 13:21:57;;;;;;;;;;;4.80;72.20;;;;;;5016564;28;87631;-72
2021/11/30 13:24:31;;;;;;;;;;;4.80;72.40;;;;;;5015619;28;87192;-58
2021/11/30 13:27:07;;;;;;;;;;;4.70;72.60;;;;;;5016647;28;87938;-65
2021/11/30 13:29:34;;;;;;;;;;;4.70;69.70;;;;;;5013842;28;88591;-62
2021/11/30 13:32:00;;;;;;;;;;;4.60;69.80;;;;;;5021128;28;88090;-61
2021/11/30 13:34:26;;;;;;;;;;;4.50;69.80;;;;;;5017411;28;88774;-62
2021/11/30 13:36:51;;;;;;;;;;;4.40;69.40;;;;;;5014944;28;87156;-62
2021/11/30 13:39:17;;;;;;;;;;;4.50;69.90;;;;;;5016242;28;88840;-62
2021/11/30 13:41:43;;;;;;;;;;;4.60;69.90;;;;;;5014747;28;87849;-62
2021/11/30 13:44:08;;;;;;;;;;;4.70;70.00;;;;;;5017333;28;87601;-62
2021/11/30 13:46:39;;;;;;;;;;;4.70;70.20;;;;;;5017773;28;89295;-62
2021/11/30 13:49:06;;;;;;;;;;;4.70;70.80;;;;;;5018556;28;89724;-62
2021/11/30 13:51:32;;;;;;;;;;;4.70;71.10;;;;;;5017600;28;87102;-62
2021/11/30 13:54:00;;;;;;;;;;;4.70;71.50;;;;;;5017296;28;88573;-62
2021/11/30 13:56:32;;;;;;;;;;;4.60;71.70;;;;;;5017296;28;87219;-62
2021/11/30 14:01:46;;;;;;;;;;;4.50;72.50;;;;;;5019716;28;87992;-62
2021/11/30 14:04:16;;;;;;;;;;;4.50;72.50;;;;;;5015788;28;87182;-62
2021/11/30 14:06:49;;;;;;;;;;;4.50;72.90;;;;;;5018724;28;87980;-62
2021/11/30 14:09:16;;;;;;;;;;;4.50;72.80;;;;;;5017825;28;89761;-62
2021/11/30 14:11:46;;;;;;;;;;;4.50;72.80;;;;;;5016421;28;86395;-62
2021/11/30 14:14:16;;;;;;;;;;;4.50;73.30;;;;;;5018746;28;87123;-62
2021/11/30 14:16:50;;;;;;;;;;;4.40;73.40;;;;;;5020543;28;89797;-62
2021/11/30 14:19:16;;;;;;;;;;;4.40;73.40;;;;;;5019611;28;88122;-62
2021/11/30 14:21:42;;;;;;;;;;;4.40;73.60;;;;;;5021090;28;89550;-62
2021/11/30 14:24:12;;;;;;;;;;;4.30;73.70;;;;;;5021583;28;87176;-62
2021/11/30 14:26:45;;;;;;;;;;;4.30;74.00;;;;;;5022346;28;87431;-62
2021/11/30 14:29:10;;;;;;;;;;;4.40;73.70;;;;;;5018225;28;87188;-62
2021/11/30 14:32:07;;;;;;;;;;;4.40;73.70;;;;;;5021034;28;87118;-63
2021/11/30 14:34:34;;;;;;;;;;;4.30;73.90;;;;;;5007722;28;87474;-62
2021/11/30 14:37:15;;;;;;;;;;;4.30;74.00;;;;;;5019966;28;88955;-62
2021/11/30 14:39:40;;;;;;;;;;;4.30;74.10;;;;;;5023966;28;87182;-63
2021/11/30 14:42:22;;;;;;;;;;;4.30;74.10;;;;;;5022196;28;88669;-62
2021/11/30 14:44:48;;;;;;;;;;;4.30;74.10;;;;;;5019911;28;88039;-62